sensor_id;sensor_type;location;lat;lon;timestamp;P1;durP1;ratioP1;P2;durP2;ratioP2
7104;SDS011;3594;42.152;24.714;2023-05-09T00:01:36;9.77;;;6.10;;
7104;SDS011;3594;42.152;24.714;2023-05-09T00:04:03;9.47;;;6.47;;
7104;SDS011;3594;42.152;24.714;2023-05-09T00:06:33;11.32;;;6.32;;
7104;SDS011;3594;42.152;24.714;2023-05-09T00:09:05;9.80;;;6.38;;
7104;SDS011;3594;42.152;24.714;2023-05-09T00:11:32;10.97;;;6.90;;
7104;SDS011;3594;42.152;24.714;2023-05-09T00:13:59;10.50;;;6.90;;
7104;SDS011;3594;42.152;24.714;2023-05-09T00:16:27;14.17;;;7.10;;
7104;SDS011;3594;42.152;24.714;2023-05-09T00:18:53;12.13;;;7.17;;
7104;SDS011;3594;42.152;24.714;2023-05-09T00:21:20;14.13;;;7.53;;
7104;SDS011;3594;42.152;24.714;2023-05-09T00:23:46;12.80;;;7.23;;
7104;SDS011;3594;42.152;24.714;2023-05-09T00:26:12;11.80;;;7.43;;
7104;SDS011;3594;42.152;24.714;2023-05-09T00:28:37;11.55;;;6.97;;
7104;SDS011;3594;42.152;24.714;2023-05-09T00:31:03;11.53;;;7.30;;
7104;SDS011;3594;42.152;24.714;2023-05-09T00:33:29;14.77;;;7.83;;
7104;SDS011;3594;42.152;24.714;2023-05-09T00:35:54;13.77;;;7.57;;
7104;SDS011;3594;42.152;24.714;2023-05-09T00:38:21;10.10;;;6.63;;
7104;SDS011;3594;42.152;24.714;2023-05-09T00:40:46;11.87;;;7.13;;
7104;SDS011;3594;42.152;24.714;2023-05-09T00:43:12;13.70;;;6.87;;
7104;SDS011;3594;42.152;24.714;2023-05-09T00:45:37;17.23;;;7.63;;
7104;SDS011;3594;42.152;24.714;2023-05-09T00:48:03;11.87;;;7.03;;
7104;SDS011;3594;42.152;24.714;2023-05-09T00:50:29;15.27;;;7.60;;
7104;SDS011;3594;42.152;24.714;2023-05-09T00:52:55;11.70;;;7.60;;
7104;SDS011;3594;42.152;24.714;2023-05-09T00:55:21;9.55;;;6.38;;
7104;SDS011;3594;42.152;24.714;2023-05-09T00:57:47;13.63;;;7.13;;
7104;SDS011;3594;42.152;24.714;2023-05-09T01:00:13;12.85;;;7.18;;
7104;SDS011;3594;42.152;24.714;2023-05-09T01:02:42;13.57;;;7.17;;
7104;SDS011;3594;42.152;24.714;2023-05-09T01:05:10;17.57;;;7.40;;
7104;SDS011;3594;42.152;24.714;2023-05-09T01:07:49;16.20;;;7.18;;
7104;SDS011;3594;42.152;24.714;2023-05-09T01:10:35;11.70;;;7.35;;
7104;SDS011;3594;42.152;24.714;2023-05-09T01:15:53;13.07;;;7.38;;
7104;SDS011;3594;42.152;24.714;2023-05-09T01:21:03;11.90;;;7.20;;
7104;SDS011;3594;42.152;24.714;2023-05-09T01:26:35;12.27;;;7.23;;
7104;SDS011;3594;42.152;24.714;2023-05-09T01:29:38;12.47;;;6.80;;
7104;SDS011;3594;42.152;24.714;2023-05-09T01:32:09;12.03;;;6.70;;
7104;SDS011;3594;42.152;24.714;2023-05-09T01:34:39;14.10;;;7.67;;
7104;SDS011;3594;42.152;24.714;2023-05-09T01:37:08;12.65;;;7.35;;
7104;SDS011;3594;42.152;24.714;2023-05-09T01:39:37;12.40;;;7.40;;
7104;SDS011;3594;42.152;24.714;2023-05-09T01:42:06;15.57;;;7.40;;
7104;SDS011;3594;42.152;24.714;2023-05-09T01:44:37;11.90;;;6.90;;
7104;SDS011;3594;42.152;24.714;2023-05-09T01:47:03;11.50;;;7.50;;
7104;SDS011;3594;42.152;24.714;2023-05-09T01:49:31;14.33;;;7.37;;
7104;SDS011;3594;42.152;24.714;2023-05-09T01:52:00;12.47;;;7.43;;
7104;SDS011;3594;42.152;24.714;2023-05-09T01:54:28;18.40;;;7.03;;
7104;SDS011;3594;42.152;24.714;2023-05-09T01:56:55;13.80;;;8.13;;
7104;SDS011;3594;42.152;24.714;2023-05-09T01:59:22;14.43;;;8.20;;
7104;SDS011;3594;42.152;24.714;2023-05-09T02:01:50;12.20;;;7.07;;
7104;SDS011;3594;42.152;24.714;2023-05-09T02:04:17;11.50;;;7.07;;
7104;SDS011;3594;42.152;24.714;2023-05-09T02:06:43;13.30;;;7.23;;
7104;SDS011;3594;42.152;24.714;2023-05-09T02:09:14;13.43;;;7.57;;
7104;SDS011;3594;42.152;24.714;2023-05-09T02:11:40;12.83;;;7.60;;
7104;SDS011;3594;42.152;24.714;2023-05-09T02:14:06;14.37;;;8.30;;
7104;SDS011;3594;42.152;24.714;2023-05-09T02:16:32;15.13;;;7.60;;
7104;SDS011;3594;42.152;24.714;2023-05-09T02:18:57;12.90;;;7.73;;
7104;SDS011;3594;42.152;24.714;2023-05-09T02:21:23;13.90;;;7.20;;
7104;SDS011;3594;42.152;24.714;2023-05-09T02:23:48;11.40;;;7.10;;
7104;SDS011;3594;42.152;24.714;2023-05-09T02:26:14;15.80;;;7.10;;
7104;SDS011;3594;42.152;24.714;2023-05-09T02:28:40;14.53;;;7.30;;
7104;SDS011;3594;42.152;24.714;2023-05-09T02:31:08;10.70;;;6.63;;
7104;SDS011;3594;42.152;24.714;2023-05-09T02:33:35;13.40;;;7.73;;
7104;SDS011;3594;42.152;24.714;2023-05-09T02:36:03;12.67;;;7.47;;
7104;SDS011;3594;42.152;24.714;2023-05-09T02:38:30;12.30;;;7.70;;
7104;SDS011;3594;42.152;24.714;2023-05-09T02:40:56;14.30;;;8.00;;
7104;SDS011;3594;42.152;24.714;2023-05-09T02:43:21;14.50;;;7.50;;
7104;SDS011;3594;42.152;24.714;2023-05-09T02:45:47;16.13;;;7.80;;
7104;SDS011;3594;42.152;24.714;2023-05-09T02:48:12;13.50;;;7.40;;
7104;SDS011;3594;42.152;24.714;2023-05-09T02:50:38;14.83;;;7.37;;
7104;SDS011;3594;42.152;24.714;2023-05-09T02:53:05;13.17;;;7.50;;
7104;SDS011;3594;42.152;24.714;2023-05-09T02:55:31;14.03;;;7.10;;
7104;SDS011;3594;42.152;24.714;2023-05-09T02:57:56;14.80;;;7.83;;
7104;SDS011;3594;42.152;24.714;2023-05-09T03:00:22;12.63;;;7.13;;
7104;SDS011;3594;42.152;24.714;2023-05-09T03:02:49;13.40;;;6.70;;
7104;SDS011;3594;42.152;24.714;2023-05-09T03:05:15;12.93;;;7.77;;
7104;SDS011;3594;42.152;24.714;2023-05-09T03:07:40;16.53;;;8.50;;
7104;SDS011;3594;42.152;24.714;2023-05-09T03:10:06;12.00;;;6.90;;
7104;SDS011;3594;42.152;24.714;2023-05-09T03:12:31;16.83;;;7.67;;
7104;SDS011;3594;42.152;24.714;2023-05-09T03:14:57;12.40;;;7.30;;
7104;SDS011;3594;42.152;24.714;2023-05-09T03:17:22;13.80;;;7.27;;
7104;SDS011;3594;42.152;24.714;2023-05-09T03:19:48;12.73;;;7.53;;
7104;SDS011;3594;42.152;24.714;2023-05-09T03:22:13;14.87;;;7.47;;
7104;SDS011;3594;42.152;24.714;2023-05-09T03:24:39;12.40;;;6.97;;
7104;SDS011;3594;42.152;24.714;2023-05-09T03:27:04;13.13;;;7.17;;
7104;SDS011;3594;42.152;24.714;2023-05-09T03:29:30;14.63;;;7.07;;
7104;SDS011;3594;42.152;24.714;2023-05-09T03:31:57;13.37;;;7.13;;
7104;SDS011;3594;42.152;24.714;2023-05-09T03:34:23;14.43;;;7.83;;
7104;SDS011;3594;42.152;24.714;2023-05-09T03:36:48;15.17;;;8.30;;
7104;SDS011;3594;42.152;24.714;2023-05-09T03:39:13;16.67;;;8.00;;
7104;SDS011;3594;42.152;24.714;2023-05-09T03:41:39;13.87;;;7.27;;
7104;SDS011;3594;42.152;24.714;2023-05-09T03:44:05;13.67;;;8.23;;
7104;SDS011;3594;42.152;24.714;2023-05-09T03:46:30;14.03;;;7.93;;
7104;SDS011;3594;42.152;24.714;2023-05-09T03:48:56;14.47;;;7.60;;
7104;SDS011;3594;42.152;24.714;2023-05-09T03:51:21;16.93;;;7.37;;
7104;SDS011;3594;42.152;24.714;2023-05-09T03:53:47;13.70;;;7.70;;
7104;SDS011;3594;42.152;24.714;2023-05-09T03:56:13;12.67;;;7.87;;
7104;SDS011;3594;42.152;24.714;2023-05-09T03:58:38;14.57;;;8.50;;
7104;SDS011;3594;42.152;24.714;2023-05-09T04:01:04;13.17;;;8.23;;
7104;SDS011;3594;42.152;24.714;2023-05-09T04:03:29;14.87;;;8.17;;
7104;SDS011;3594;42.152;24.714;2023-05-09T04:05:56;16.13;;;8.97;;
7104;SDS011;3594;42.152;24.714;2023-05-09T04:08:21;12.73;;;7.87;;
7104;SDS011;3594;42.152;24.714;2023-05-09T04:10:48;14.10;;;7.77;;
7104;SDS011;3594;42.152;24.714;2023-05-09T04:13:14;20.73;;;7.50;;
7104;SDS011;3594;42.152;24.714;2023-05-09T04:15:40;14.30;;;7.77;;
7104;SDS011;3594;42.152;24.714;2023-05-09T04:18:06;17.50;;;7.47;;
7104;SDS011;3594;42.152;24.714;2023-05-09T04:20:31;18.43;;;7.80;;
7104;SDS011;3594;42.152;24.714;2023-05-09T04:22:56;14.80;;;8.10;;
7104;SDS011;3594;42.152;24.714;2023-05-09T04:25:23;13.40;;;7.73;;
7104;SDS011;3594;42.152;24.714;2023-05-09T04:27:48;11.80;;;7.23;;
7104;SDS011;3594;42.152;24.714;2023-05-09T04:30:14;15.02;;;7.82;;
7104;SDS011;3594;42.152;24.714;2023-05-09T04:32:39;16.48;;;8.38;;
7104;SDS011;3594;42.152;24.714;2023-05-09T04:35:09;14.68;;;7.97;;
7104;SDS011;3594;42.152;24.714;2023-05-09T04:37:35;15.85;;;7.97;;
7104;SDS011;3594;42.152;24.714;2023-05-09T04:40:00;20.40;;;8.93;;
7104;SDS011;3594;42.152;24.714;2023-05-09T04:42:26;15.73;;;8.57;;
7104;SDS011;3594;42.152;24.714;2023-05-09T04:44:51;16.08;;;9.20;;
7104;SDS011;3594;42.152;24.714;2023-05-09T04:47:17;16.73;;;9.25;;
7104;SDS011;3594;42.152;24.714;2023-05-09T04:49:42;18.38;;;9.20;;
7104;SDS011;3594;42.152;24.714;2023-05-09T04:52:08;15.30;;;9.25;;
7104;SDS011;3594;42.152;24.714;2023-05-09T04:54:34;17.27;;;9.67;;
7104;SDS011;3594;42.152;24.714;2023-05-09T04:56:59;14.13;;;8.27;;
7104;SDS011;3594;42.152;24.714;2023-05-09T04:59:24;17.15;;;8.15;;
7104;SDS011;3594;42.152;24.714;2023-05-09T05:01:50;16.75;;;8.75;;
7104;SDS011;3594;42.152;24.714;2023-05-09T05:04:15;15.43;;;7.47;;
7104;SDS011;3594;42.152;24.714;2023-05-09T05:06:41;15.98;;;8.77;;
7104;SDS011;3594;42.152;24.714;2023-05-09T05:09:06;16.00;;;8.60;;
7104;SDS011;3594;42.152;24.714;2023-05-09T05:11:31;16.23;;;8.88;;
7104;SDS011;3594;42.152;24.714;2023-05-09T05:13:57;16.17;;;8.52;;
7104;SDS011;3594;42.152;24.714;2023-05-09T05:16:22;17.35;;;9.70;;
7104;SDS011;3594;42.152;24.714;2023-05-09T05:18:48;13.18;;;7.28;;
7104;SDS011;3594;42.152;24.714;2023-05-09T05:21:13;18.30;;;8.25;;
7104;SDS011;3594;42.152;24.714;2023-05-09T05:23:40;13.15;;;7.47;;
7104;SDS011;3594;42.152;24.714;2023-05-09T05:26:05;17.48;;;8.57;;
7104;SDS011;3594;42.152;24.714;2023-05-09T05:28:31;18.95;;;9.23;;
7104;SDS011;3594;42.152;24.714;2023-05-09T05:30:56;18.02;;;9.15;;
7104;SDS011;3594;42.152;24.714;2023-05-09T05:33:21;16.63;;;9.05;;
7104;SDS011;3594;42.152;24.714;2023-05-09T05:35:47;14.98;;;8.82;;
7104;SDS011;3594;42.152;24.714;2023-05-09T05:38:12;14.52;;;8.35;;
7104;SDS011;3594;42.152;24.714;2023-05-09T05:40:38;14.90;;;7.82;;
7104;SDS011;3594;42.152;24.714;2023-05-09T05:43:03;14.18;;;7.53;;
7104;SDS011;3594;42.152;24.714;2023-05-09T05:45:28;16.85;;;8.13;;
7104;SDS011;3594;42.152;24.714;2023-05-09T05:47:55;15.70;;;7.72;;
7104;SDS011;3594;42.152;24.714;2023-05-09T05:50:20;17.27;;;6.82;;
7104;SDS011;3594;42.152;24.714;2023-05-09T05:52:46;13.85;;;7.13;;
7104;SDS011;3594;42.152;24.714;2023-05-09T05:55:11;15.95;;;7.68;;
7104;SDS011;3594;42.152;24.714;2023-05-09T05:57:37;16.30;;;8.82;;
7104;SDS011;3594;42.152;24.714;2023-05-09T06:00:03;20.65;;;7.68;;
7104;SDS011;3594;42.152;24.714;2023-05-09T06:02:32;16.50;;;8.27;;
7104;SDS011;3594;42.152;24.714;2023-05-09T06:04:58;13.50;;;8.23;;
7104;SDS011;3594;42.152;24.714;2023-05-09T06:07:23;16.13;;;8.75;;
7104;SDS011;3594;42.152;24.714;2023-05-09T06:09:49;14.50;;;8.25;;
7104;SDS011;3594;42.152;24.714;2023-05-09T06:12:14;16.48;;;8.60;;
7104;SDS011;3594;42.152;24.714;2023-05-09T06:14:41;15.85;;;8.23;;
7104;SDS011;3594;42.152;24.714;2023-05-09T06:17:07;15.55;;;8.40;;
7104;SDS011;3594;42.152;24.714;2023-05-09T06:19:32;17.45;;;9.02;;
7104;SDS011;3594;42.152;24.714;2023-05-09T06:21:58;16.65;;;8.77;;
7104;SDS011;3594;42.152;24.714;2023-05-09T06:24:23;17.33;;;8.82;;
7104;SDS011;3594;42.152;24.714;2023-05-09T06:26:48;15.27;;;8.32;;
7104;SDS011;3594;42.152;24.714;2023-05-09T06:29:14;17.38;;;9.15;;
7104;SDS011;3594;42.152;24.714;2023-05-09T06:31:40;13.48;;;7.90;;
7104;SDS011;3594;42.152;24.714;2023-05-09T06:34:06;15.48;;;8.98;;
7104;SDS011;3594;42.152;24.714;2023-05-09T06:36:32;16.30;;;8.63;;
7104;SDS011;3594;42.152;24.714;2023-05-09T06:38:58;16.08;;;8.45;;
7104;SDS011;3594;42.152;24.714;2023-05-09T06:41:24;13.88;;;8.18;;
7104;SDS011;3594;42.152;24.714;2023-05-09T06:43:50;13.13;;;8.02;;
7104;SDS011;3594;42.152;24.714;2023-05-09T06:46:15;20.00;;;8.98;;
7104;SDS011;3594;42.152;24.714;2023-05-09T06:48:41;15.85;;;8.57;;
7104;SDS011;3594;42.152;24.714;2023-05-09T06:51:06;16.38;;;8.43;;
7104;SDS011;3594;42.152;24.714;2023-05-09T06:53:32;14.18;;;8.68;;
7104;SDS011;3594;42.152;24.714;2023-05-09T06:55:57;16.83;;;8.18;;
7104;SDS011;3594;42.152;24.714;2023-05-09T06:58:23;16.25;;;8.38;;
7104;SDS011;3594;42.152;24.714;2023-05-09T07:00:48;15.85;;;8.18;;
7104;SDS011;3594;42.152;24.714;2023-05-09T07:03:15;16.75;;;8.13;;
7104;SDS011;3594;42.152;24.714;2023-05-09T07:05:40;15.77;;;7.35;;
7104;SDS011;3594;42.152;24.714;2023-05-09T07:08:06;14.68;;;8.30;;
7104;SDS011;3594;42.152;24.714;2023-05-09T07:10:31;14.50;;;7.82;;
7104;SDS011;3594;42.152;24.714;2023-05-09T07:12:57;15.18;;;7.90;;
7104;SDS011;3594;42.152;24.714;2023-05-09T07:15:22;15.15;;;7.38;;
7104;SDS011;3594;42.152;24.714;2023-05-09T07:17:48;15.30;;;7.88;;
7104;SDS011;3594;42.152;24.714;2023-05-09T07:20:13;17.23;;;7.65;;
7104;SDS011;3594;42.152;24.714;2023-05-09T07:22:38;15.82;;;8.13;;
7104;SDS011;3594;42.152;24.714;2023-05-09T07:25:07;18.65;;;9.52;;
7104;SDS011;3594;42.152;24.714;2023-05-09T07:27:33;16.65;;;8.00;;
7104;SDS011;3594;42.152;24.714;2023-05-09T07:29:59;18.50;;;7.97;;
7104;SDS011;3594;42.152;24.714;2023-05-09T07:32:24;18.67;;;8.18;;
7104;SDS011;3594;42.152;24.714;2023-05-09T07:34:52;21.60;;;8.63;;
7104;SDS011;3594;42.152;24.714;2023-05-09T07:37:18;16.85;;;8.95;;
7104;SDS011;3594;42.152;24.714;2023-05-09T07:39:43;17.67;;;8.20;;
7104;SDS011;3594;42.152;24.714;2023-05-09T07:42:10;16.33;;;8.63;;
7104;SDS011;3594;42.152;24.714;2023-05-09T07:44:35;16.58;;;8.73;;
7104;SDS011;3594;42.152;24.714;2023-05-09T07:47:00;18.88;;;8.60;;
7104;SDS011;3594;42.152;24.714;2023-05-09T07:49:26;17.73;;;9.15;;
7104;SDS011;3594;42.152;24.714;2023-05-09T07:51:52;22.05;;;8.75;;
7104;SDS011;3594;42.152;24.714;2023-05-09T07:54:17;16.20;;;8.82;;
7104;SDS011;3594;42.152;24.714;2023-05-09T07:56:42;19.30;;;9.55;;
7104;SDS011;3594;42.152;24.714;2023-05-09T07:59:08;15.60;;;8.23;;
7104;SDS011;3594;42.152;24.714;2023-05-09T08:01:33;19.25;;;10.85;;
7104;SDS011;3594;42.152;24.714;2023-05-09T08:03:59;18.27;;;9.40;;
7104;SDS011;3594;42.152;24.714;2023-05-09T08:06:24;20.50;;;9.35;;
7104;SDS011;3594;42.152;24.714;2023-05-09T08:08:50;20.25;;;9.68;;
7104;SDS011;3594;42.152;24.714;2023-05-09T08:11:16;18.52;;;9.95;;
7104;SDS011;3594;42.152;24.714;2023-05-09T08:13:41;24.52;;;11.02;;
7104;SDS011;3594;42.152;24.714;2023-05-09T08:16:06;20.60;;;9.35;;
7104;SDS011;3594;42.152;24.714;2023-05-09T08:18:32;22.10;;;10.20;;
7104;SDS011;3594;42.152;24.714;2023-05-09T08:20:57;22.83;;;10.48;;
7104;SDS011;3594;42.152;24.714;2023-05-09T08:23:23;23.58;;;10.23;;
7104;SDS011;3594;42.152;24.714;2023-05-09T08:25:53;22.88;;;10.80;;
7104;SDS011;3594;42.152;24.714;2023-05-09T08:28:19;20.83;;;10.13;;
7104;SDS011;3594;42.152;24.714;2023-05-09T08:30:46;19.95;;;10.18;;
7104;SDS011;3594;42.152;24.714;2023-05-09T08:33:11;25.23;;;11.20;;
7104;SDS011;3594;42.152;24.714;2023-05-09T08:35:37;28.35;;;10.25;;
7104;SDS011;3594;42.152;24.714;2023-05-09T08:38:02;22.50;;;10.30;;
7104;SDS011;3594;42.152;24.714;2023-05-09T08:40:27;20.23;;;9.85;;
7104;SDS011;3594;42.152;24.714;2023-05-09T08:42:53;18.33;;;9.43;;
7104;SDS011;3594;42.152;24.714;2023-05-09T08:45:21;18.58;;;9.40;;
7104;SDS011;3594;42.152;24.714;2023-05-09T08:47:53;16.92;;;8.32;;
7104;SDS011;3594;42.152;24.714;2023-05-09T08:50:19;18.58;;;8.57;;
7104;SDS011;3594;42.152;24.714;2023-05-09T08:52:45;21.50;;;9.65;;
7104;SDS011;3594;42.152;24.714;2023-05-09T08:55:11;16.65;;;8.00;;
7104;SDS011;3594;42.152;24.714;2023-05-09T08:57:37;16.55;;;8.38;;
7104;SDS011;3594;42.152;24.714;2023-05-09T09:00:03;17.42;;;8.13;;
7104;SDS011;3594;42.152;24.714;2023-05-09T09:02:35;16.33;;;8.50;;
7104;SDS011;3594;42.152;24.714;2023-05-09T09:05:01;17.23;;;8.38;;
7104;SDS011;3594;42.152;24.714;2023-05-09T09:07:26;19.25;;;8.80;;
7104;SDS011;3594;42.152;24.714;2023-05-09T09:09:54;16.10;;;8.88;;
7104;SDS011;3594;42.152;24.714;2023-05-09T09:12:21;19.73;;;9.20;;
7104;SDS011;3594;42.152;24.714;2023-05-09T09:14:48;17.60;;;8.93;;
7104;SDS011;3594;42.152;24.714;2023-05-09T09:17:18;16.05;;;8.52;;
7104;SDS011;3594;42.152;24.714;2023-05-09T09:19:47;15.23;;;8.00;;
7104;SDS011;3594;42.152;24.714;2023-05-09T09:22:15;14.35;;;8.15;;
7104;SDS011;3594;42.152;24.714;2023-05-09T09:24:43;16.92;;;8.15;;
7104;SDS011;3594;42.152;24.714;2023-05-09T09:27:08;18.02;;;8.57;;
7104;SDS011;3594;42.152;24.714;2023-05-09T09:29:33;15.40;;;8.82;;
7104;SDS011;3594;42.152;24.714;2023-05-09T09:32:02;15.25;;;8.82;;
7104;SDS011;3594;42.152;24.714;2023-05-09T09:34:29;14.00;;;8.18;;
7104;SDS011;3594;42.152;24.714;2023-05-09T09:36:54;16.88;;;8.43;;
7104;SDS011;3594;42.152;24.714;2023-05-09T09:39:20;13.43;;;7.80;;
7104;SDS011;3594;42.152;24.714;2023-05-09T09:41:46;13.48;;;7.80;;
7104;SDS011;3594;42.152;24.714;2023-05-09T09:49:15;15.85;;;7.32;;
7104;SDS011;3594;42.152;24.714;2023-05-09T09:51:42;13.98;;;7.70;;
7104;SDS011;3594;42.152;24.714;2023-05-09T09:54:09;14.68;;;7.15;;
7104;SDS011;3594;42.152;24.714;2023-05-09T09:56:39;14.30;;;7.97;;
7104;SDS011;3594;42.152;24.714;2023-05-09T09:59:09;14.38;;;7.60;;
7104;SDS011;3594;42.152;24.714;2023-05-09T10:01:58;17.52;;;7.95;;
7104;SDS011;3594;42.152;24.714;2023-05-09T10:04:30;17.20;;;9.00;;
7104;SDS011;3594;42.152;24.714;2023-05-09T10:09:23;15.88;;;8.20;;
7104;SDS011;3594;42.152;24.714;2023-05-09T10:11:51;15.05;;;8.15;;
7104;SDS011;3594;42.152;24.714;2023-05-09T10:14:18;14.38;;;8.00;;
7104;SDS011;3594;42.152;24.714;2023-05-09T10:16:46;18.77;;;8.13;;
7104;SDS011;3594;42.152;24.714;2023-05-09T10:19:13;16.15;;;8.45;;
7104;SDS011;3594;42.152;24.714;2023-05-09T10:21:52;17.75;;;8.50;;
7104;SDS011;3594;42.152;24.714;2023-05-09T10:24:38;16.92;;;8.45;;
7104;SDS011;3594;42.152;24.714;2023-05-09T10:27:08;13.65;;;7.47;;
7104;SDS011;3594;42.152;24.714;2023-05-09T10:29:45;15.30;;;8.23;;
7104;SDS011;3594;42.152;24.714;2023-05-09T10:32:22;16.45;;;8.30;;
7104;SDS011;3594;42.152;24.714;2023-05-09T10:34:57;14.52;;;7.80;;
7104;SDS011;3594;42.152;24.714;2023-05-09T10:37:26;15.93;;;8.10;;
7104;SDS011;3594;42.152;24.714;2023-05-09T10:39:52;15.73;;;7.93;;
7104;SDS011;3594;42.152;24.714;2023-05-09T10:42:19;15.50;;;7.00;;
7104;SDS011;3594;42.152;24.714;2023-05-09T10:44:47;13.20;;;7.15;;
7104;SDS011;3594;42.152;24.714;2023-05-09T10:47:13;14.40;;;6.82;;
7104;SDS011;3594;42.152;24.714;2023-05-09T10:49:40;12.43;;;7.28;;
7104;SDS011;3594;42.152;24.714;2023-05-09T10:52:06;14.60;;;7.28;;
7104;SDS011;3594;42.152;24.714;2023-05-09T10:54:31;17.25;;;8.55;;
7104;SDS011;3594;42.152;24.714;2023-05-09T10:57:01;15.30;;;7.65;;
7104;SDS011;3594;42.152;24.714;2023-05-09T10:59:34;12.98;;;7.15;;
7104;SDS011;3594;42.152;24.714;2023-05-09T11:02:02;11.60;;;7.07;;
7104;SDS011;3594;42.152;24.714;2023-05-09T11:04:29;13.15;;;7.45;;
7104;SDS011;3594;42.152;24.714;2023-05-09T11:06:55;13.07;;;7.30;;
7104;SDS011;3594;42.152;24.714;2023-05-09T11:09:24;12.25;;;6.75;;
7104;SDS011;3594;42.152;24.714;2023-05-09T11:11:51;10.90;;;6.38;;
7104;SDS011;3594;42.152;24.714;2023-05-09T11:17:02;11.18;;;6.35;;
7104;SDS011;3594;42.152;24.714;2023-05-09T11:19:32;12.23;;;6.40;;
7104;SDS011;3594;42.152;24.714;2023-05-09T11:22:14;13.63;;;6.43;;
7104;SDS011;3594;42.152;24.714;2023-05-09T11:24:51;12.95;;;6.25;;
7104;SDS011;3594;42.152;24.714;2023-05-09T11:27:25;12.50;;;7.00;;
7104;SDS011;3594;42.152;24.714;2023-05-09T11:29:53;13.23;;;7.05;;
7104;SDS011;3594;42.152;24.714;2023-05-09T11:32:19;13.18;;;7.03;;
7104;SDS011;3594;42.152;24.714;2023-05-09T11:34:48;14.43;;;7.18;;
7104;SDS011;3594;42.152;24.714;2023-05-09T11:37:17;13.52;;;7.50;;
7104;SDS011;3594;42.152;24.714;2023-05-09T11:39:58;13.25;;;6.75;;
7104;SDS011;3594;42.152;24.714;2023-05-09T11:42:29;12.85;;;6.55;;
7104;SDS011;3594;42.152;24.714;2023-05-09T11:44:55;11.88;;;6.55;;
7104;SDS011;3594;42.152;24.714;2023-05-09T11:47:25;10.45;;;5.60;;
7104;SDS011;3594;42.152;24.714;2023-05-09T11:49:52;11.65;;;6.85;;
7104;SDS011;3594;42.152;24.714;2023-05-09T11:52:18;10.95;;;6.47;;
7104;SDS011;3594;42.152;24.714;2023-05-09T11:54:44;11.07;;;6.45;;
7104;SDS011;3594;42.152;24.714;2023-05-09T11:57:10;12.88;;;6.95;;
7104;SDS011;3594;42.152;24.714;2023-05-09T11:59:41;12.80;;;7.13;;
7104;SDS011;3594;42.152;24.714;2023-05-09T12:02:07;12.80;;;6.80;;
7104;SDS011;3594;42.152;24.714;2023-05-09T12:04:32;11.93;;;6.25;;
7104;SDS011;3594;42.152;24.714;2023-05-09T12:06:58;15.18;;;7.05;;
7104;SDS011;3594;42.152;24.714;2023-05-09T12:09:33;12.35;;;7.00;;
7104;SDS011;3594;42.152;24.714;2023-05-09T12:12:20;12.43;;;6.53;;
7104;SDS011;3594;42.152;24.714;2023-05-09T12:14:47;16.42;;;8.35;;
7104;SDS011;3594;42.152;24.714;2023-05-09T12:17:14;14.30;;;6.85;;
7104;SDS011;3594;42.152;24.714;2023-05-09T12:19:40;15.18;;;7.50;;
7104;SDS011;3594;42.152;24.714;2023-05-09T12:22:05;11.35;;;6.53;;
7104;SDS011;3594;42.152;24.714;2023-05-09T12:24:31;12.05;;;6.55;;
7104;SDS011;3594;42.152;24.714;2023-05-09T12:26:59;13.82;;;6.82;;
7104;SDS011;3594;42.152;24.714;2023-05-09T12:29:25;11.48;;;6.65;;
7104;SDS011;3594;42.152;24.714;2023-05-09T12:31:52;13.18;;;7.38;;
7104;SDS011;3594;42.152;24.714;2023-05-09T12:34:21;10.07;;;6.15;;
7104;SDS011;3594;42.152;24.714;2023-05-09T12:36:49;11.05;;;6.60;;
7104;SDS011;3594;42.152;24.714;2023-05-09T12:39:19;10.40;;;6.47;;
7104;SDS011;3594;42.152;24.714;2023-05-09T12:41:48;14.07;;;7.50;;
7104;SDS011;3594;42.152;24.714;2023-05-09T12:44:21;13.23;;;6.97;;
7104;SDS011;3594;42.152;24.714;2023-05-09T12:49:28;13.00;;;7.28;;
7104;SDS011;3594;42.152;24.714;2023-05-09T12:51:55;12.45;;;6.72;;
7104;SDS011;3594;42.152;24.714;2023-05-09T12:54:22;13.07;;;6.47;;
7104;SDS011;3594;42.152;24.714;2023-05-09T12:56:50;11.95;;;7.05;;
7104;SDS011;3594;42.152;24.714;2023-05-09T12:59:20;12.05;;;6.30;;
7104;SDS011;3594;42.152;24.714;2023-05-09T13:01:50;11.20;;;6.57;;
7104;SDS011;3594;42.152;24.714;2023-05-09T13:04:26;11.68;;;6.80;;
7104;SDS011;3594;42.152;24.714;2023-05-09T13:06:55;10.80;;;6.65;;
7104;SDS011;3594;42.152;24.714;2023-05-09T13:09:25;10.25;;;5.75;;
7104;SDS011;3594;42.152;24.714;2023-05-09T13:11:54;8.90;;;5.47;;
7104;SDS011;3594;42.152;24.714;2023-05-09T13:14:19;10.90;;;6.10;;
7104;SDS011;3594;42.152;24.714;2023-05-09T13:16:47;9.45;;;5.68;;
7104;SDS011;3594;42.152;24.714;2023-05-09T13:19:12;10.18;;;6.22;;
7104;SDS011;3594;42.152;24.714;2023-05-09T13:21:41;10.40;;;6.18;;
7104;SDS011;3594;42.152;24.714;2023-05-09T13:24:06;10.23;;;6.32;;
7104;SDS011;3594;42.152;24.714;2023-05-09T13:26:32;15.45;;;6.95;;
7104;SDS011;3594;42.152;24.714;2023-05-09T13:28:58;9.48;;;5.68;;
7104;SDS011;3594;42.152;24.714;2023-05-09T13:31:24;10.60;;;6.80;;
7104;SDS011;3594;42.152;24.714;2023-05-09T13:33:53;11.40;;;5.95;;
7104;SDS011;3594;42.152;24.714;2023-05-09T13:36:18;9.38;;;6.15;;
7104;SDS011;3594;42.152;24.714;2023-05-09T13:38:44;10.60;;;5.78;;
7104;SDS011;3594;42.152;24.714;2023-05-09T13:41:10;12.18;;;6.40;;
7104;SDS011;3594;42.152;24.714;2023-05-09T13:43:37;9.63;;;5.45;;
7104;SDS011;3594;42.152;24.714;2023-05-09T13:46:03;11.32;;;6.05;;
7104;SDS011;3594;42.152;24.714;2023-05-09T13:48:28;10.32;;;5.75;;
7104;SDS011;3594;42.152;24.714;2023-05-09T13:50:54;8.93;;;5.38;;
7104;SDS011;3594;42.152;24.714;2023-05-09T13:53:21;10.55;;;5.78;;
7104;SDS011;3594;42.152;24.714;2023-05-09T13:55:47;10.20;;;6.25;;
7104;SDS011;3594;42.152;24.714;2023-05-09T13:58:12;10.93;;;6.00;;
7104;SDS011;3594;42.152;24.714;2023-05-09T14:00:38;10.38;;;5.57;;
7104;SDS011;3594;42.152;24.714;2023-05-09T14:03:03;10.43;;;5.93;;
7104;SDS011;3594;42.152;24.714;2023-05-09T14:05:32;11.57;;;5.93;;
7104;SDS011;3594;42.152;24.714;2023-05-09T14:07:57;11.07;;;5.65;;
7104;SDS011;3594;42.152;24.714;2023-05-09T14:10:23;10.10;;;5.47;;
7104;SDS011;3594;42.152;24.714;2023-05-09T14:12:50;8.98;;;5.68;;
7104;SDS011;3594;42.152;24.714;2023-05-09T14:15:17;8.85;;;5.00;;
7104;SDS011;3594;42.152;24.714;2023-05-09T14:17:43;10.15;;;5.70;;
7104;SDS011;3594;42.152;24.714;2023-05-09T14:20:08;8.73;;;5.10;;
7104;SDS011;3594;42.152;24.714;2023-05-09T14:22:34;10.25;;;5.97;;
7104;SDS011;3594;42.152;24.714;2023-05-09T14:25:00;7.80;;;5.10;;
7104;SDS011;3594;42.152;24.714;2023-05-09T14:27:25;10.20;;;4.90;;
7104;SDS011;3594;42.152;24.714;2023-05-09T14:29:51;7.45;;;4.95;;
7104;SDS011;3594;42.152;24.714;2023-05-09T14:32:16;7.45;;;4.75;;
7104;SDS011;3594;42.152;24.714;2023-05-09T14:34:42;9.40;;;5.03;;
7104;SDS011;3594;42.152;24.714;2023-05-09T14:37:07;8.10;;;4.65;;
7104;SDS011;3594;42.152;24.714;2023-05-09T14:39:40;7.05;;;4.47;;
7104;SDS011;3594;42.152;24.714;2023-05-09T14:42:07;7.20;;;4.45;;
7104;SDS011;3594;42.152;24.714;2023-05-09T14:44:38;5.97;;;4.40;;
7104;SDS011;3594;42.152;24.714;2023-05-09T14:47:05;8.88;;;4.70;;
7104;SDS011;3594;42.152;24.714;2023-05-09T14:49:31;7.53;;;4.63;;
7104;SDS011;3594;42.152;24.714;2023-05-09T14:51:57;7.85;;;4.53;;
7104;SDS011;3594;42.152;24.714;2023-05-09T14:54:22;11.45;;;4.15;;
7104;SDS011;3594;42.152;24.714;2023-05-09T14:56:48;7.57;;;4.32;;
7104;SDS011;3594;42.152;24.714;2023-05-09T14:59:13;7.30;;;4.13;;
7104;SDS011;3594;42.152;24.714;2023-05-09T15:01:39;11.48;;;5.35;;
7104;SDS011;3594;42.152;24.714;2023-05-09T15:04:06;10.23;;;4.68;;
7104;SDS011;3594;42.152;24.714;2023-05-09T15:06:31;9.18;;;5.32;;
7104;SDS011;3594;42.152;24.714;2023-05-09T15:08:57;11.68;;;5.15;;